createdAt,value
2019-02-17T00:02:26.662Z,98893.06
2019-02-17T00:04:57.103Z,98889.58
2019-02-17T00:07:27.958Z,98888.66
2019-02-17T00:09:58.900Z,98891.95
2019-02-17T00:12:29.489Z,98891.38
2019-02-17T00:14:58.559Z,98892.45
2019-02-17T00:17:29.198Z,98887.74
2019-02-17T00:20:02.414Z,98889.84
2019-02-17T00:22:32.224Z,98886.75
2019-02-17T00:25:07.503Z,98889.51
2019-02-17T00:27:40.853Z,98886.23
2019-02-17T00:30:13.325Z,98889.73
2019-02-17T00:32:44.721Z,98898.00
2019-02-17T00:35:14.504Z,98898.08
2019-02-17T00:37:44.830Z,98897.78
2019-02-17T00:40:15.143Z,98895.55
2019-02-17T00:42:46.001Z,98893.47
2019-02-17T00:45:16.883Z,98895.63
2019-02-17T00:47:46.494Z,98890.41
2019-02-17T00:50:17.810Z,98886.38
2019-02-17T00:52:48.238Z,98884.59
2019-02-17T00:55:18.662Z,98884.06
2019-02-17T00:57:49.231Z,98879.05
2019-02-17T01:00:22.834Z,98879.35
2019-02-17T01:02:52.670Z,98886.94
2019-02-17T01:05:22.527Z,98880.22
2019-02-17T01:07:52.350Z,98881.09
2019-02-17T01:10:23.791Z,98885.73
2019-02-17T01:12:53.417Z,98890.79
2019-02-17T01:15:23.512Z,98884.30
2019-02-17T01:17:53.891Z,98886.55
2019-02-17T01:20:23.270Z,98885.62
2019-02-17T01:22:53.674Z,98886.14
2019-02-17T01:25:25.709Z,98841.36
2019-02-17T01:27:55.362Z,98841.36
2019-02-17T01:30:28.690Z,98878.03
2019-02-17T01:32:58.702Z,98881.08
2019-02-17T01:35:31.262Z,98878.03
2019-02-17T01:38:01.123Z,98875.05
2019-02-17T01:40:30.206Z,98876.94
2019-02-17T01:43:00.482Z,98865.47
2019-02-17T01:45:30.334Z,98868.81
2019-02-17T01:48:00.682Z,98865.09
2019-02-17T01:50:31.470Z,98870.79
2019-02-17T01:53:01.864Z,98869.55
2019-02-17T01:55:33.955Z,98876.29
2019-02-17T01:58:05.298Z,98875.16
2019-02-17T02:00:35.697Z,98877.22
2019-02-17T02:03:05.312Z,98871.70
2019-02-17T02:05:34.404Z,98868.16
2019-02-17T02:08:04.223Z,98867.45
2019-02-17T02:10:33.277Z,98868.28
2019-02-17T02:13:04.591Z,98863.86
2019-02-17T02:15:34.480Z,98870.20
2019-02-17T02:18:05.870Z,98860.44
2019-02-17T02:20:36.655Z,98853.96
2019-02-17T02:23:07.213Z,98854.97
2019-02-17T02:25:39.214Z,98856.28
2019-02-17T02:28:09.507Z,98856.70
2019-02-17T02:30:40.374Z,98838.24
2019-02-17T02:33:10.147Z,98849.51
2019-02-17T02:35:40.173Z,98848.95
2019-02-17T02:38:09.218Z,98852.44
2019-02-17T02:40:39.519Z,98847.49
2019-02-17T02:43:08.591Z,98844.83
2019-02-17T02:45:39.185Z,98848.63
2019-02-17T02:48:12.597Z,98851.15
2019-02-17T02:50:44.046Z,98848.95
2019-02-17T02:53:14.478Z,98851.51
2019-02-17T02:55:45.072Z,98845.03
2019-02-17T02:58:15.636Z,98840.34
2019-02-17T03:00:45.472Z,98841.50
2019-02-17T03:03:13.765Z,98842.95
2019-02-17T03:05:44.449Z,98836.16
2019-02-17T03:08:13.539Z,98835.94
2019-02-17T03:10:44.301Z,98841.12
2019-02-17T03:13:15.667Z,98839.84
2019-02-17T03:15:46.223Z,98839.49
2019-02-17T03:18:16.740Z,98839.75
2019-02-17T03:20:47.311Z,98838.30
2019-02-17T03:23:18.596Z,98841.69
2019-02-17T03:25:48.687Z,98840.80
2019-02-17T03:28:19.570Z,98834.37
2019-02-17T03:30:50.199Z,98840.08
2019-02-17T03:33:23.541Z,98836.92
2019-02-17T03:35:54.318Z,98837.23
2019-02-17T03:38:26.031Z,98839.42
2019-02-17T03:40:56.317Z,98836.75
2019-02-17T03:43:27.118Z,98837.27
2019-02-17T03:45:58.446Z,98843.14
2019-02-17T03:48:28.289Z,98842.31
2019-02-17T03:50:58.899Z,98844.45
2019-02-17T03:53:29.314Z,98850.34
2019-02-17T03:56:00.683Z,98850.70
2019-02-17T03:58:31.396Z,98850.14
2019-02-17T04:01:01.221Z,98849.09
2019-02-17T04:03:30.307Z,98840.69
2019-02-17T04:06:01.648Z,98843.39
2019-02-17T04:08:32.255Z,98841.52
2019-02-17T04:11:02.713Z,98844.80
2019-02-17T04:13:32.239Z,98845.33
2019-02-17T04:16:02.628Z,98846.38
2019-02-17T04:18:33.246Z,98847.69
2019-02-17T04:21:04.624Z,98844.45
2019-02-17T04:23:35.475Z,98839.49
2019-02-17T04:26:05.092Z,98838.66
2019-02-17T04:28:35.187Z,98833.28
2019-02-17T04:31:05.167Z,98833.28
2019-02-17T04:33:36.545Z,98832.70
2019-02-17T04:36:06.178Z,98831.62
2019-02-17T04:38:35.813Z,98828.06
2019-02-17T04:41:10.545Z,98824.27
2019-02-17T04:43:42.064Z,98819.09
2019-02-17T04:46:12.495Z,98820.14
2019-02-17T04:48:43.155Z,98817.08
2019-02-17T04:51:14.563Z,98820.61
2019-02-17T04:53:45.240Z,98818.38
2019-02-17T04:56:16.583Z,98816.55
2019-02-17T04:58:47.374Z,98816.30
2019-02-17T05:01:17.662Z,98822.38
2019-02-17T05:03:48.910Z,98818.00
2019-02-17T05:06:19.487Z,98826.30
2019-02-17T05:08:49.202Z,98821.04
2019-02-17T05:11:20.546Z,98825.11
2019-02-17T05:13:50.383Z,98828.09
2019-02-17T05:16:20.977Z,98825.64
2019-02-17T05:18:52.423Z,98827.03
2019-02-17T05:21:25.621Z,98827.13
2019-02-17T05:23:56.465Z,98825.97
2019-02-17T05:26:26.850Z,98831.21
2019-02-17T05:28:57.282Z,98828.61
2019-02-17T05:31:28.533Z,98833.70
2019-02-17T05:33:59.311Z,98834.80
2019-02-17T05:36:29.330Z,98839.89
2019-02-17T05:38:58.412Z,98840.01
2019-02-17T05:41:28.913Z,98841.50
2019-02-17T05:43:58.767Z,98847.75
2019-02-17T05:46:30.158Z,98842.39
2019-02-17T05:49:01.522Z,98844.53
2019-02-17T05:51:32.061Z,98844.92
2019-02-17T05:54:02.132Z,98847.63
2019-02-17T05:56:32.498Z,98849.29
2019-02-17T05:59:05.907Z,98848.27
2019-02-17T06:01:34.949Z,98853.03
2019-02-17T06:04:09.224Z,98853.40
2019-02-17T06:06:40.138Z,98845.17
2019-02-17T06:09:11.443Z,98847.61
2019-02-17T06:11:42.002Z,98854.80
2019-02-17T06:14:13.362Z,98856.80
2019-02-17T06:16:44.707Z,98871.75
2019-02-17T06:19:17.798Z,98869.74
2019-02-17T06:21:49.199Z,98871.82
2019-02-17T06:24:19.041Z,98877.64
2019-02-17T06:26:50.307Z,98874.13
2019-02-17T06:29:23.567Z,98871.94
2019-02-17T06:31:53.329Z,98880.64
2019-02-17T06:34:22.976Z,98875.92
2019-02-17T06:36:53.009Z,98880.13
2019-02-17T06:39:24.471Z,98880.41
2019-02-17T06:41:54.366Z,98879.66
2019-02-17T06:44:25.749Z,98884.62
2019-02-17T06:46:57.779Z,98878.19
2019-02-17T06:49:29.159Z,98874.12
2019-02-17T06:52:00.595Z,98880.52
2019-02-17T06:54:30.910Z,98884.35
2019-02-17T06:57:05.906Z,98870.22
2019-02-17T06:59:36.813Z,98873.52
2019-02-17T07:02:06.724Z,98873.69
2019-02-17T07:04:55.463Z,98879.52
2019-02-17T07:07:28.976Z,98877.84
2019-02-17T07:10:00.815Z,98881.30
2019-02-17T07:12:31.207Z,98875.52
2019-02-17T07:15:06.462Z,98871.80
2019-02-17T07:17:36.867Z,98870.23
2019-02-17T07:22:41.071Z,98879.61
2019-02-17T07:25:12.339Z,98873.19
2019-02-17T07:27:41.811Z,98884.98
2019-02-17T07:30:19.747Z,98881.89
2019-02-17T07:32:49.611Z,98890.67
2019-02-17T07:35:20.270Z,98890.47
2019-02-17T07:37:50.109Z,98894.98
2019-02-17T07:40:21.485Z,98893.16
2019-02-17T07:42:51.215Z,98895.93
2019-02-17T07:45:21.627Z,98890.95
2019-02-17T07:47:52.898Z,98897.91
2019-02-17T07:50:24.142Z,98891.78
2019-02-17T07:52:54.077Z,98892.41
2019-02-17T07:55:25.433Z,98882.41
2019-02-17T07:57:55.051Z,98882.41
2019-02-17T08:00:25.206Z,98881.20
2019-02-17T08:02:55.017Z,98887.55
2019-02-17T08:05:26.293Z,98887.76
2019-02-17T08:07:57.103Z,98879.04
2019-02-17T08:10:27.889Z,98878.98
2019-02-17T08:12:57.746Z,98872.19
2019-02-17T08:15:29.107Z,98878.36
2019-02-17T08:17:59.490Z,98877.14
2019-02-17T08:20:30.117Z,98885.02
2019-02-17T08:22:59.797Z,98884.99
2019-02-17T08:25:30.408Z,98881.52
2019-02-17T08:28:01.276Z,98875.63
2019-02-17T08:30:30.915Z,98876.70
2019-02-17T08:33:02.254Z,98883.17
2019-02-17T08:35:33.541Z,98880.25
2019-02-17T08:38:04.173Z,98875.86
2019-02-17T08:40:35.089Z,98876.05
2019-02-17T08:43:11.158Z,98877.28
2019-02-17T08:45:41.713Z,98875.52
2019-02-17T08:48:11.279Z,98875.63
2019-02-17T08:50:40.990Z,98876.39
2019-02-17T08:53:09.249Z,98876.39
2019-02-17T08:55:37.876Z,98878.73
2019-02-17T08:58:13.011Z,98870.03
2019-02-17T09:00:42.661Z,98866.88
2019-02-17T09:03:12.430Z,98862.58
2019-02-17T09:05:44.457Z,98864.36
2019-02-17T09:08:14.554Z,98876.75
2019-02-17T09:10:45.929Z,98868.27
2019-02-17T09:13:18.562Z,98876.59
2019-02-17T09:15:49.415Z,98878.50
2019-02-17T09:18:20.053Z,98876.77
2019-02-17T09:20:51.430Z,98873.91
2019-02-17T09:23:21.921Z,98864.14
2019-02-17T09:25:51.951Z,98854.82
2019-02-17T09:28:22.366Z,98863.14
2019-02-17T09:30:53.269Z,98863.28
2019-02-17T09:33:23.169Z,98860.98
2019-02-17T09:35:51.408Z,98871.88
2019-02-17T09:38:22.895Z,98875.22
2019-02-17T09:40:54.319Z,98866.95
2019-02-17T09:43:25.103Z,98870.25
2019-02-17T09:45:56.405Z,98866.72
2019-02-17T09:48:27.760Z,98861.89
2019-02-17T09:51:00.114Z,98861.73
2019-02-17T09:53:30.485Z,98863.25
2019-02-17T09:56:00.905Z,98860.64
2019-02-17T09:58:32.141Z,98860.93
2019-02-17T10:01:02.969Z,98852.82
2019-02-17T10:03:35.887Z,98854.50
2019-02-17T10:06:06.253Z,98854.50
2019-02-17T10:08:41.362Z,98855.05
2019-02-17T10:11:12.752Z,98854.88
2019-02-17T10:13:44.246Z,98858.58
2019-02-17T10:16:16.243Z,98854.77
2019-02-17T10:18:47.082Z,98846.92
2019-02-17T10:21:22.128Z,98844.17
2019-02-17T10:23:52.721Z,98851.86
2019-02-17T10:26:23.470Z,98839.16
2019-02-17T10:28:54.898Z,98838.39
2019-02-17T10:31:28.110Z,98838.98
2019-02-17T10:33:58.004Z,98838.82
2019-02-17T10:36:28.750Z,98838.12
2019-02-17T10:38:58.767Z,98841.64
2019-02-17T10:41:28.751Z,98834.50
2019-02-17T10:43:58.863Z,98831.03
2019-02-17T10:46:28.708Z,98828.04
2019-02-17T10:49:01.966Z,98827.78
2019-02-17T10:51:34.608Z,98836.46
2019-02-17T10:56:39.679Z,98817.58
2019-02-17T10:59:09.709Z,98812.81
2019-02-17T11:01:40.420Z,98814.92
2019-02-17T11:04:10.980Z,98802.49
2019-02-17T11:06:41.620Z,98797.32
2019-02-17T11:09:23.791Z,98793.33
2019-02-17T11:11:56.081Z,98789.02
2019-02-17T11:14:26.934Z,98790.24
2019-02-17T11:16:58.177Z,98786.02
2019-02-17T11:19:26.486Z,98784.39
2019-02-17T11:21:56.579Z,98772.99
2019-02-17T11:24:26.617Z,98770.50
2019-02-17T11:26:57.840Z,98769.66
2019-02-17T11:29:28.225Z,98760.97
2019-02-17T11:31:57.831Z,98758.60
2019-02-17T11:34:28.226Z,98761.05
2019-02-17T11:37:00.880Z,98762.69
2019-02-17T11:39:30.965Z,98759.67
2019-02-17T11:42:02.286Z,98752.14
2019-02-17T11:44:32.616Z,98748.90
2019-02-17T11:47:03.949Z,98746.91
2019-02-17T11:49:33.572Z,98751.05
2019-02-17T11:52:04.336Z,98744.37
2019-02-17T11:54:35.119Z,98744.98
2019-02-17T11:57:05.683Z,98742.07
2019-02-17T11:59:38.544Z,98747.04
2019-02-17T12:02:07.582Z,98738.75
2019-02-17T12:04:39.503Z,98734.00
2019-02-17T12:07:09.847Z,98722.98
2019-02-17T12:09:40.622Z,98728.31
2019-02-17T12:12:13.620Z,98725.95
2019-02-17T12:14:43.662Z,98722.30
2019-02-17T12:17:15.014Z,98719.47
2019-02-17T12:19:45.613Z,98703.31
2019-02-17T12:22:17.682Z,98712.33
2019-02-17T12:24:48.138Z,98700.89
2019-02-17T12:27:22.127Z,98696.57
2019-02-17T12:29:54.203Z,98694.64
2019-02-17T12:32:28.495Z,98692.85
2019-02-17T12:35:01.758Z,98691.70
2019-02-17T12:37:34.868Z,98689.33
2019-02-17T12:40:05.732Z,98678.44
2019-02-17T12:42:37.002Z,98674.23
2019-02-17T12:45:10.192Z,98675.52
2019-02-17T12:47:41.519Z,98668.14
2019-02-17T12:50:14.125Z,98669.86
2019-02-17T12:52:47.028Z,98658.38
2019-02-17T12:55:15.575Z,98658.05
2019-02-17T12:57:46.896Z,98656.38
2019-02-17T13:00:20.276Z,98656.64
2019-02-17T13:02:51.079Z,98658.02
2019-02-17T13:05:22.452Z,98653.85
2019-02-17T13:07:53.843Z,98653.98
2019-02-17T13:10:25.702Z,98655.12
2019-02-17T13:12:55.566Z,98649.61
2019-02-17T13:15:26.926Z,98650.25
2019-02-17T13:17:57.688Z,98646.83
2019-02-17T13:20:30.537Z,98637.20
2019-02-17T13:23:01.878Z,98635.75
2019-02-17T13:25:32.145Z,98631.50
2019-02-17T13:28:03.814Z,98628.28
2019-02-17T13:30:36.977Z,98633.81
2019-02-17T13:33:06.876Z,98631.41
2019-02-17T13:35:37.456Z,98624.64
2019-02-17T13:38:07.142Z,98621.50
2019-02-17T13:40:37.575Z,98622.32
2019-02-17T13:43:11.621Z,98618.19
2019-02-17T13:45:40.987Z,98621.55
2019-02-17T13:48:10.104Z,98619.56
2019-02-17T13:50:43.917Z,98614.99
2019-02-17T13:53:14.720Z,98611.63
2019-02-17T13:55:46.745Z,98607.13
2019-02-17T13:58:17.320Z,98599.77
2019-02-17T14:00:48.686Z,98609.88
2019-02-17T14:03:22.848Z,98603.53
2019-02-17T14:05:53.423Z,98601.47
2019-02-17T14:08:25.295Z,98605.33
2019-02-17T14:10:56.670Z,98601.25
2019-02-17T14:13:27.949Z,98596.52
2019-02-17T14:15:57.608Z,98595.77
2019-02-17T14:18:30.931Z,98592.05
2019-02-17T14:21:01.814Z,98590.41
2019-02-17T14:23:33.163Z,98588.02
2019-02-17T14:26:06.127Z,98582.97
2019-02-17T14:28:38.644Z,98589.84
2019-02-17T14:31:14.099Z,98568.64
2019-02-17T14:33:44.978Z,98566.98
2019-02-17T14:36:15.419Z,98566.73
2019-02-17T14:38:48.720Z,98565.59
2019-02-17T14:41:19.522Z,98561.86
2019-02-17T14:43:50.770Z,98561.09
2019-02-17T14:46:23.186Z,98560.59
2019-02-17T14:48:56.147Z,98557.80
2019-02-17T14:51:29.491Z,98555.40
2019-02-17T14:54:00.836Z,98557.20
2019-02-17T14:56:32.888Z,98551.05
2019-02-17T14:59:03.271Z,98550.49
2019-02-17T15:01:33.572Z,98543.38
2019-02-17T15:04:09.016Z,98546.13
2019-02-17T15:06:40.598Z,98549.87
2019-02-17T15:09:11.939Z,98551.25
2019-02-17T15:11:44.032Z,98538.39
2019-02-17T15:14:14.444Z,98536.33
2019-02-17T15:16:43.008Z,98535.20
2019-02-17T15:19:15.056Z,98537.30
2019-02-17T15:21:45.443Z,98529.95
2019-02-17T15:24:16.715Z,98526.08
2019-02-17T15:26:47.511Z,98525.84
2019-02-17T15:29:17.399Z,98522.98
2019-02-17T15:31:50.640Z,98523.87
2019-02-17T15:34:21.394Z,98523.95
2019-02-17T15:36:51.235Z,98529.21
2019-02-17T15:39:21.031Z,98520.48
2019-02-17T15:41:52.303Z,98516.47
2019-02-17T15:44:23.109Z,98519.70
2019-02-17T15:46:56.370Z,98516.27
2019-02-17T15:49:26.819Z,98512.92
2019-02-17T15:51:59.504Z,98510.80
2019-02-17T15:54:29.177Z,98507.08
2019-02-17T15:56:59.987Z,98500.29
2019-02-17T15:59:30.451Z,98502.45
2019-02-17T16:02:07.541Z,98503.30
2019-02-17T16:04:40.750Z,98502.52
2019-02-17T16:07:13.616Z,98501.22
2019-02-17T16:09:42.945Z,98502.05
2019-02-17T16:12:14.608Z,98494.84
2019-02-17T16:14:45.170Z,98498.27
2019-02-17T16:17:15.060Z,98490.08
2019-02-17T16:19:47.760Z,98480.38
2019-02-17T16:22:19.284Z,98480.38
2019-02-17T16:24:51.632Z,98493.03
2019-02-17T16:27:22.288Z,98493.86
2019-02-17T16:29:53.136Z,98498.72
2019-02-17T16:32:26.382Z,98496.36
2019-02-17T16:34:57.840Z,98492.48
2019-02-17T16:37:28.593Z,98495.08
2019-02-17T16:40:01.211Z,98499.11
2019-02-17T16:42:32.447Z,98498.63
2019-02-17T16:45:07.716Z,98498.14
2019-02-17T16:47:38.512Z,98505.13
2019-02-17T16:50:13.339Z,98500.17
2019-02-17T16:52:43.458Z,98507.74
2019-02-17T16:55:14.288Z,98501.73
2019-02-17T16:57:46.326Z,98508.99
2019-02-17T17:00:19.886Z,98505.74
2019-02-17T17:02:53.204Z,98506.52
2019-02-17T17:05:24.111Z,98500.68
2019-02-17T17:07:54.488Z,98514.44
2019-02-17T17:10:24.864Z,98510.26
2019-02-17T17:12:55.265Z,98514.75
2019-02-17T17:15:28.178Z,98512.99
2019-02-17T17:17:57.284Z,98505.48
2019-02-17T17:20:28.719Z,98509.66
2019-02-17T17:23:01.299Z,98509.61
2019-02-17T17:25:34.163Z,98515.25
2019-02-17T17:28:04.336Z,98522.15
2019-02-17T17:30:33.974Z,98523.83
2019-02-17T17:33:04.386Z,98523.73
2019-02-17T17:35:36.622Z,98518.65
2019-02-17T17:38:09.844Z,98517.06
2019-02-17T17:40:41.399Z,98522.83
2019-02-17T17:43:14.383Z,98526.94
2019-02-17T17:45:45.206Z,98529.91
2019-02-17T17:48:15.637Z,98524.47
2019-02-17T17:50:48.052Z,98526.17
2019-02-17T17:53:19.443Z,98525.59
2019-02-17T17:55:50.805Z,98524.73
2019-02-17T17:58:21.189Z,98526.64
2019-02-17T18:00:54.447Z,98534.83
2019-02-17T18:03:25.035Z,98536.05
2019-02-17T18:05:55.178Z,98530.45
2019-02-17T18:08:26.530Z,98540.27
2019-02-17T18:10:57.355Z,98538.25
2019-02-17T18:13:29.218Z,98536.61
2019-02-17T18:15:58.314Z,98529.73
2019-02-17T18:18:28.371Z,98529.73
2019-02-17T18:20:59.220Z,98530.95
2019-02-17T18:23:32.532Z,98530.48
2019-02-17T18:26:06.772Z,98528.77
2019-02-17T18:28:36.649Z,98532.59
2019-02-17T18:31:09.969Z,98528.78
2019-02-17T18:33:39.810Z,98533.09
2019-02-17T18:36:08.950Z,98530.50
2019-02-17T18:38:39.791Z,98531.53
2019-02-17T18:41:11.121Z,98529.22
2019-02-17T18:43:45.708Z,98525.77
2019-02-17T18:46:17.070Z,98528.48
2019-02-17T18:48:49.969Z,98532.79
2019-02-17T18:51:21.432Z,98532.56
2019-02-17T18:53:52.823Z,98532.43
2019-02-17T18:56:21.894Z,98532.83
2019-02-17T18:58:53.300Z,98532.31
2019-02-17T19:01:24.675Z,98534.53
2019-02-17T19:03:55.245Z,98540.53
2019-02-17T19:06:25.060Z,98539.33
2019-02-17T19:08:56.398Z,98538.97
2019-02-17T19:11:27.670Z,98541.59
2019-02-17T19:13:58.255Z,98537.44
2019-02-17T19:16:28.849Z,98536.72
2019-02-17T19:19:00.079Z,98543.33
2019-02-17T19:21:31.498Z,98539.77
2019-02-17T19:24:02.850Z,98539.84
2019-02-17T19:26:34.226Z,98538.18
2019-02-17T19:29:04.785Z,98538.03
2019-02-17T19:31:37.558Z,98538.94
2019-02-17T19:34:07.941Z,98540.30
2019-02-17T19:36:37.046Z,98548.72
2019-02-17T19:39:06.250Z,98544.42
2019-02-17T19:41:36.880Z,98542.73
2019-02-17T19:44:08.503Z,98539.55
2019-02-17T19:46:39.921Z,98539.03
2019-02-17T19:49:11.086Z,98545.11
2019-02-17T19:51:40.915Z,98543.50
2019-02-17T19:54:11.688Z,98548.97
2019-02-17T19:56:41.679Z,98542.50
2019-02-17T19:59:12.143Z,98546.08
2019-02-17T20:01:44.301Z,98550.59
2019-02-17T20:04:28.754Z,98552.80
2019-02-17T20:07:00.017Z,98549.83
2019-02-17T20:09:33.427Z,98545.80
2019-02-17T20:12:12.278Z,98540.64
2019-02-17T20:14:43.509Z,98539.03
2019-02-17T20:17:14.311Z,98540.45
2019-02-17T20:19:44.172Z,98538.89
2019-02-17T20:22:13.993Z,98535.88
2019-02-17T20:24:45.361Z,98539.62
2019-02-17T20:27:18.255Z,98540.69
2019-02-17T20:29:48.723Z,98543.95
2019-02-17T20:32:19.491Z,98544.65
2019-02-17T20:34:50.287Z,98550.70
2019-02-17T20:37:21.135Z,98551.48
2019-02-17T20:39:51.531Z,98553.19
2019-02-17T20:42:21.364Z,98564.45
2019-02-17T20:44:52.629Z,98561.43
2019-02-17T20:47:24.095Z,98568.30
2019-02-17T20:49:53.238Z,98562.64
2019-02-17T20:52:23.073Z,98556.07
2019-02-17T20:54:53.207Z,98550.94
2019-02-17T20:57:23.967Z,98560.73
2019-02-17T20:59:54.182Z,98557.72
2019-02-17T21:02:24.750Z,98555.04
2019-02-17T21:04:54.398Z,98550.45
2019-02-17T21:07:25.043Z,98550.73
2019-02-17T21:09:56.505Z,98552.14
2019-02-17T21:12:27.907Z,98549.70
2019-02-17T21:14:57.937Z,98551.10
2019-02-17T21:17:30.159Z,98553.61
2019-02-17T21:20:01.006Z,98551.39
2019-02-17T21:22:32.237Z,98548.69
2019-02-17T21:25:07.886Z,98546.72
2019-02-17T21:27:39.137Z,98551.39
2019-02-17T21:30:10.992Z,98550.59
2019-02-17T21:32:40.976Z,98552.25
2019-02-17T21:35:13.711Z,98550.84
2019-02-17T21:37:44.338Z,98551.70
2019-02-17T21:40:16.381Z,98550.91
2019-02-17T21:42:46.668Z,98552.28
2019-02-17T21:45:16.635Z,98553.13
2019-02-17T21:47:46.943Z,98554.78
2019-02-17T21:50:17.871Z,98554.20
2019-02-17T21:52:47.573Z,98554.49
2019-02-17T21:55:17.803Z,98551.26
2019-02-17T21:57:47.824Z,98552.33
2019-02-17T22:00:23.406Z,98550.45
2019-02-17T22:02:54.162Z,98550.20
2019-02-17T22:05:27.775Z,98549.12
2019-02-17T22:08:00.110Z,98554.34
2019-02-17T22:10:30.771Z,98551.61
2019-02-17T22:12:59.839Z,98550.78
2019-02-17T22:15:31.093Z,98552.72
2019-02-17T22:18:03.336Z,98548.62
2019-02-17T22:20:34.699Z,98547.16
2019-02-17T22:23:06.031Z,98542.22
2019-02-17T22:25:37.407Z,98544.26
2019-02-17T22:28:08.818Z,98537.48
2019-02-17T22:30:39.314Z,98537.22
2019-02-17T22:33:09.166Z,98537.25
2019-02-17T22:35:39.857Z,98537.25
2019-02-17T22:38:11.204Z,98539.94
2019-02-17T22:40:42.578Z,98541.89
2019-02-17T22:43:12.865Z,98537.53
2019-02-17T22:45:44.167Z,98533.73
2019-02-17T22:48:15.523Z,98535.64
2019-02-17T22:50:47.270Z,98536.17
2019-02-17T22:53:19.696Z,98538.36
2019-02-17T22:55:49.713Z,98539.46
2019-02-17T22:58:19.694Z,98539.46
2019-02-17T23:00:54.278Z,98536.75
2019-02-17T23:03:23.912Z,98538.66
2019-02-17T23:05:53.955Z,98539.46
2019-02-17T23:08:26.054Z,98542.45
2019-02-17T23:10:57.494Z,98542.72
2019-02-17T23:13:27.778Z,98543.01
2019-02-17T23:15:58.213Z,98542.71
2019-02-17T23:18:29.511Z,98541.39
2019-02-17T23:20:59.542Z,98542.22
2019-02-17T23:23:29.652Z,98541.94
2019-02-17T23:26:00.977Z,98541.94
2019-02-17T23:28:33.205Z,98547.11
2019-02-17T23:31:06.196Z,98550.91
2019-02-17T23:33:35.840Z,98540.05
2019-02-17T23:36:07.285Z,98541.12
2019-02-17T23:38:36.939Z,98546.01
2019-02-17T23:41:06.544Z,98549.30
2019-02-17T23:43:37.997Z,98546.84
2019-02-17T23:46:07.669Z,98542.75
2019-02-17T23:48:41.011Z,98539.23
2019-02-17T23:51:10.859Z,98541.41
2019-02-17T23:53:44.210Z,98542.75
2019-02-17T23:56:15.536Z,98542.47
2019-02-17T23:58:48.781Z,98543.58
